St Martins, United Kingdom

4:04 PM GMT on February 20, 2017 (GMT +0000)
IISLESOF2 | | Change Station

Elev 100 ft 49.96 °N, 6.28 °W | Updated 4 minutes ago

Overcast
Overcast
50.6 °F
Feels Like 50.6 °F
N
15.0
Wind Variable Wind from WNW
Gusts 29.0 mph

Today
High -- | Low -- °F
--% Chance of Precip.
Yesterday
High -- | Low -- °F
Precip. -- in
Pressure 30.27 in
Visibility 3.1 miles
Clouds Mostly Cloudy 100 ft
Overcast 300 ft
Dew Point 50 °F
Humidity 98%
Rainfall 0.00 in
Snow Depth Not available.
7:26 AM 5:52 PM
Waning Crescent, 33% visible
METAR EGHE 201550Z 29015KT 5000 BR BKN001 OVC003 11/10 Q1025
Pressure 30.27 in
Visibility 3.1 miles
Clouds Mostly Cloudy 100 ft
Overcast 300 ft
Dew Point 50 °F
Humidity 98%
Rainfall 0.00 in
Snow Depth Not available.
7:26 AM 5:52 PM
Waning Crescent, 33% visible
METAR EGHE 201550Z 29015KT 5000 BR BKN001 OVC003 11/10 Q1025

Get Your Daily Forecast Email!

Thanks for signing up!

Be on the lookout for a verification email in your inbox.

You'll start receiving the daily forecast at 8 AM.

×

10-Day Weather Forecast

×

Almanac

Astronomy

Feb. 20, 2017 Rise Set
Actual Time
Civil Twilight
Nautical Twilight
Astronomical Twilight
Moon
Length of Visible Light
Length of Day
Tomorrow will be .
, % of the Moon is Illuminated

Today's Extremes

Country Highs Country Lows

Community

WunderPhotos

Upload Photos

1,962,540 photos uploaded!

WunderBlog® & News

Nearby

Air Quality

  Air Quality AQ Index Pollutant
Not available.

Snow Depth

Station Depth Elevation

Earthquake Activity

City Distance Mag. Time & Date
Minimum magnitude displayed is 2.5.

Coastal Water Temperatures

Place Temperature

Stations

Nearby Weather Stations

Station Location Temp. Windchill Dew Point Humidity Wind Precip. Elev Updated Type